sensor_id;sensor_type;location;lat;lon;timestamp;pressure;altitude;pressure_sealevel;temperature;humidity
49216;BME280;45943;53.148;8.204;2022-12-26T00:01:41;100956.84;;;9.34;100.00
49216;BME280;45943;53.148;8.204;2022-12-26T00:04:09;100956.94;;;9.32;100.00
49216;BME280;45943;53.148;8.204;2022-12-26T00:06:35;100944.41;;;9.33;100.00
49216;BME280;45943;53.148;8.204;2022-12-26T00:09:02;100945.50;;;9.30;100.00
49216;BME280;45943;53.148;8.204;2022-12-26T00:11:29;100952.81;;;9.28;100.00
49216;BME280;45943;53.148;8.204;2022-12-26T00:13:56;100959.97;;;9.28;100.00
49216;BME280;45943;53.148;8.204;2022-12-26T00:16:24;100959.84;;;9.29;100.00
49216;BME280;45943;53.148;8.204;2022-12-26T00:18:51;100949.28;;;9.28;100.00
49216;BME280;45943;53.148;8.204;2022-12-26T00:21:17;100951.09;;;9.27;100.00
49216;BME280;45943;53.148;8.204;2022-12-26T00:23:44;100950.25;;;9.27;100.00
49216;BME280;45943;53.148;8.204;2022-12-26T00:26:13;100943.06;;;9.27;100.00
49216;BME280;45943;53.148;8.204;2022-12-26T00:28:44;100937.06;;;9.24;100.00
49216;BME280;45943;53.148;8.204;2022-12-26T00:31:20;100946.72;;;9.26;100.00
49216;BME280;45943;53.148;8.204;2022-12-26T00:33:48;100951.22;;;9.26;100.00
49216;BME280;45943;53.148;8.204;2022-12-26T00:36:22;100942.41;;;9.24;100.00
49216;BME280;45943;53.148;8.204;2022-12-26T00:38:50;100936.13;;;9.25;100.00
49216;BME280;45943;53.148;8.204;2022-12-26T00:41:17;100945.94;;;9.24;100.00
49216;BME280;45943;53.148;8.204;2022-12-26T00:43:44;100948.00;;;9.20;100.00
49216;BME280;45943;53.148;8.204;2022-12-26T00:46:11;100951.41;;;9.23;100.00
49216;BME280;45943;53.148;8.204;2022-12-26T00:48:38;100946.91;;;9.23;100.00
49216;BME280;45943;53.148;8.204;2022-12-26T00:51:04;100946.84;;;9.25;100.00
49216;BME280;45943;53.148;8.204;2022-12-26T00:53:30;100939.31;;;9.30;100.00
49216;BME280;45943;53.148;8.204;2022-12-26T00:55:57;100934.06;;;9.28;100.00
49216;BME280;45943;53.148;8.204;2022-12-26T00:58:23;100932.34;;;9.27;100.00
49216;BME280;45943;53.148;8.204;2022-12-26T01:00:49;100939.41;;;9.28;100.00
49216;BME280;45943;53.148;8.204;2022-12-26T01:03:16;100936.97;;;9.25;100.00
49216;BME280;45943;53.148;8.204;2022-12-26T01:05:43;100942.22;;;9.27;100.00
49216;BME280;45943;53.148;8.204;2022-12-26T01:08:10;100936.13;;;9.25;100.00
49216;BME280;45943;53.148;8.204;2022-12-26T01:10:39;100932.78;;;9.21;100.00
49216;BME280;45943;53.148;8.204;2022-12-26T01:13:06;100932.56;;;9.24;100.00
49216;BME280;45943;53.148;8.204;2022-12-26T01:15:32;100930.66;;;9.26;100.00
49216;BME280;45943;53.148;8.204;2022-12-26T01:17:58;100930.66;;;9.26;100.00
49216;BME280;45943;53.148;8.204;2022-12-26T01:20:25;100942.22;;;9.27;100.00
49216;BME280;45943;53.148;8.204;2022-12-26T01:22:52;100943.19;;;9.26;100.00
49216;BME280;45943;53.148;8.204;2022-12-26T01:25:19;100929.69;;;9.27;100.00
49216;BME280;45943;53.148;8.204;2022-12-26T01:27:45;100933.09;;;9.29;100.00
49216;BME280;45943;53.148;8.204;2022-12-26T01:30:11;100938.69;;;9.26;100.00
49216;BME280;45943;53.148;8.204;2022-12-26T01:32:37;100939.66;;;9.25;100.00
49216;BME280;45943;53.148;8.204;2022-12-26T01:35:03;100951.09;;;9.27;100.00
49216;BME280;45943;53.148;8.204;2022-12-26T01:37:29;100950.25;;;9.27;100.00
49216;BME280;45943;53.148;8.204;2022-12-26T01:39:55;100949.28;;;9.28;100.00
49216;BME280;45943;53.148;8.204;2022-12-26T01:42:23;100951.94;;;9.28;100.00
49216;BME280;45943;53.148;8.204;2022-12-26T01:50:06;100962.00;;;9.24;100.00
49216;BME280;45943;53.148;8.204;2022-12-26T01:52:43;100958.47;;;9.24;100.00
49216;BME280;45943;53.148;8.204;2022-12-26T01:55:12;100951.28;;;9.24;100.00
49216;BME280;45943;53.148;8.204;2022-12-26T01:57:41;100952.28;;;9.23;100.00
49216;BME280;45943;53.148;8.204;2022-12-26T02:00:14;100954.84;;;9.25;100.00
49216;BME280;45943;53.148;8.204;2022-12-26T02:02:40;100960.66;;;9.18;100.00
49216;BME280;45943;53.148;8.204;2022-12-26T02:05:27;100960.03;;;9.15;100.00
49216;BME280;45943;53.148;8.204;2022-12-26T02:08:02;100962.59;;;9.16;100.00
49216;BME280;45943;53.148;8.204;2022-12-26T02:10:46;100966.22;;;9.15;100.00
49216;BME280;45943;53.148;8.204;2022-12-26T02:13:16;100964.28;;;9.17;100.00
49216;BME280;45943;53.148;8.204;2022-12-26T02:15:44;100964.06;;;9.20;100.00
49216;BME280;45943;53.148;8.204;2022-12-26T02:18:10;100967.59;;;9.21;100.00
49216;BME280;45943;53.148;8.204;2022-12-26T02:20:41;100969.53;;;9.19;100.00
49216;BME280;45943;53.148;8.204;2022-12-26T02:23:28;100971.47;;;9.17;100.00
49216;BME280;45943;53.148;8.204;2022-12-26T02:31:45;100955.78;;;9.24;100.00
49216;BME280;45943;53.148;8.204;2022-12-26T02:37:48;100953.25;;;9.22;100.00
49216;BME280;45943;53.148;8.204;2022-12-26T02:43:35;100950.44;;;9.24;100.00
49216;BME280;45943;53.148;8.204;2022-12-26T02:46:19;100951.41;;;9.23;100.00
49216;BME280;45943;53.148;8.204;2022-12-26T02:49:18;100950.34;;;9.25;100.00
49216;BME280;45943;53.148;8.204;2022-12-26T02:54:56;100950.34;;;9.25;100.00
49216;BME280;45943;53.148;8.204;2022-12-26T02:57:55;100945.84;;;9.26;100.00
49216;BME280;45943;53.148;8.204;2022-12-26T03:00:59;100955.59;;;9.27;100.00
49216;BME280;45943;53.148;8.204;2022-12-26T03:03:47;100957.53;;;9.25;100.00
49216;BME280;45943;53.148;8.204;2022-12-26T03:06:50;100952.91;;;9.27;100.00
49216;BME280;45943;53.148;8.204;2022-12-26T03:09:38;100958.38;;;9.25;100.00
49216;BME280;45943;53.148;8.204;2022-12-26T03:12:47;100950.25;;;9.27;100.00
49216;BME280;45943;53.148;8.204;2022-12-26T03:15:47;100953.78;;;9.27;100.00
49216;BME280;45943;53.148;8.204;2022-12-26T03:18:40;100949.16;;;9.29;100.00
49216;BME280;45943;53.148;8.204;2022-12-26T03:21:09;100949.28;;;9.28;100.00
49216;BME280;45943;53.148;8.204;2022-12-26T03:23:38;100950.41;;;9.36;100.00
49216;BME280;45943;53.148;8.204;2022-12-26T03:26:10;100949.88;;;9.44;100.00
49216;BME280;45943;53.148;8.204;2022-12-26T03:29:00;100953.41;;;9.44;100.00
49216;BME280;45943;53.148;8.204;2022-12-26T03:31:45;100951.56;;;9.45;100.00
49216;BME280;45943;53.148;8.204;2022-12-26T03:34:12;100958.84;;;9.43;100.00
49216;BME280;45943;53.148;8.204;2022-12-26T03:39:32;100956.06;;;9.44;100.00
49216;BME280;45943;53.148;8.204;2022-12-26T03:48:17;100950.59;;;9.46;100.00
49216;BME280;45943;53.148;8.204;2022-12-26T03:51:24;100953.28;;;9.46;100.00
49216;BME280;45943;53.148;8.204;2022-12-26T03:57:22;100945.97;;;9.48;100.00
49216;BME280;45943;53.148;8.204;2022-12-26T04:00:16;100950.34;;;9.49;100.00
49216;BME280;45943;53.148;8.204;2022-12-26T04:03:04;100948.41;;;9.51;100.00
49216;BME280;45943;53.148;8.204;2022-12-26T04:05:53;100950.34;;;9.49;100.00
49216;BME280;45943;53.148;8.204;2022-12-26T04:08:52;100952.59;;;9.55;100.00
49216;BME280;45943;53.148;8.204;2022-12-26T04:11:42;100954.19;;;9.58;100.00
49216;BME280;45943;53.148;8.204;2022-12-26T04:17:47;100954.50;;;9.53;100.00
49216;BME280;45943;53.148;8.204;2022-12-26T04:20:49;100956.84;;;9.58;100.00
49216;BME280;45943;53.148;8.204;2022-12-26T04:23:57;100967.34;;;9.61;100.00
49216;BME280;45943;53.148;8.204;2022-12-26T04:26:48;100966.34;;;9.62;100.00
49216;BME280;45943;53.148;8.204;2022-12-26T04:29:38;100963.06;;;9.58;100.00
49216;BME280;45943;53.148;8.204;2022-12-26T04:33:06;100971.84;;;9.60;100.00
49216;BME280;45943;53.148;8.204;2022-12-26T04:38:59;100954.47;;;9.66;100.00
49216;BME280;45943;53.148;8.204;2022-12-26T04:41:46;100961.66;;;9.65;100.00
49216;BME280;45943;53.148;8.204;2022-12-26T04:44:33;100957.16;;;9.66;100.00
49216;BME280;45943;53.148;8.204;2022-12-26T04:47:00;100955.44;;;9.65;100.00
49216;BME280;45943;53.148;8.204;2022-12-26T04:49:26;100959.94;;;9.64;100.00
49216;BME280;45943;53.148;8.204;2022-12-26T04:52:11;100965.19;;;9.66;100.00
49216;BME280;45943;53.148;8.204;2022-12-26T04:54:39;100962.25;;;9.69;100.00
49216;BME280;45943;53.148;8.204;2022-12-26T04:57:06;100969.44;;;9.68;100.00
49216;BME280;45943;53.148;8.204;2022-12-26T04:59:33;100971.50;;;9.65;100.00
49216;BME280;45943;53.148;8.204;2022-12-26T05:01:59;100970.97;;;9.60;100.00
49216;BME280;45943;53.148;8.204;2022-12-26T05:04:43;100973.41;;;9.63;100.00
49216;BME280;45943;53.148;8.204;2022-12-26T05:07:29;100965.31;;;9.64;100.00
49216;BME280;45943;53.148;8.204;2022-12-26T05:10:17;100966.25;;;9.63;100.00
49216;BME280;45943;53.148;8.204;2022-12-26T05:12:48;100965.31;;;9.64;100.00
49216;BME280;45943;53.148;8.204;2022-12-26T05:15:15;100962.25;;;9.69;100.00
49216;BME280;45943;53.148;8.204;2022-12-26T05:17:41;100961.22;;;9.83;100.00
49216;BME280;45943;53.148;8.204;2022-12-26T05:20:26;100957.47;;;9.61;100.00
49216;BME280;45943;53.148;8.204;2022-12-26T05:26:13;100953.81;;;9.62;100.00
49216;BME280;45943;53.148;8.204;2022-12-26T05:29:02;100962.78;;;9.74;100.00
49216;BME280;45943;53.148;8.204;2022-12-26T05:31:29;100960.88;;;9.87;100.00
49216;BME280;45943;53.148;8.204;2022-12-26T05:33:55;100951.41;;;9.94;100.00
49216;BME280;45943;53.148;8.204;2022-12-26T05:39:14;100953.25;;;9.94;100.00
49216;BME280;45943;53.148;8.204;2022-12-26T05:41:40;100955.81;;;9.95;100.00
49216;BME280;45943;53.148;8.204;2022-12-26T05:44:07;100959.22;;;9.97;100.00
49216;BME280;45943;53.148;8.204;2022-12-26T05:46:34;100956.53;;;9.97;100.00
49216;BME280;45943;53.148;8.204;2022-12-26T05:49:00;100957.91;;;9.79;100.00
49216;BME280;45943;53.148;8.204;2022-12-26T05:51:26;100950.91;;;9.89;100.00
49216;BME280;45943;53.148;8.204;2022-12-26T05:53:52;100947.16;;;9.68;100.00
49216;BME280;45943;53.148;8.204;2022-12-26T05:56:19;100959.19;;;9.86;100.00
49216;BME280;45943;53.148;8.204;2022-12-26T05:58:46;100969.72;;;9.76;100.00
49216;BME280;45943;53.148;8.204;2022-12-26T06:01:13;100970.47;;;9.78;100.00
49216;BME280;45943;53.148;8.204;2022-12-26T06:03:42;100965.97;;;9.79;100.00
49216;BME280;45943;53.148;8.204;2022-12-26T06:06:12;100960.72;;;9.77;100.00
49216;BME280;45943;53.148;8.204;2022-12-26T06:08:39;100958.38;;;9.73;100.00
49216;BME280;45943;53.148;8.204;2022-12-26T06:11:05;100960.09;;;9.74;100.00
49216;BME280;45943;53.148;8.204;2022-12-26T06:13:33;100958.91;;;9.78;100.00
49216;BME280;45943;53.148;8.204;2022-12-26T06:16:02;100966.97;;;9.89;100.00
49216;BME280;45943;53.148;8.204;2022-12-26T06:18:32;100968.34;;;9.71;100.00
49216;BME280;45943;53.148;8.204;2022-12-26T06:20:58;100971.22;;;9.57;100.00
49216;BME280;45943;53.148;8.204;2022-12-26T06:23:24;100970.88;;;9.61;100.00
49216;BME280;45943;53.148;8.204;2022-12-26T06:25:53;100971.88;;;9.71;100.00
49216;BME280;45943;53.148;8.204;2022-12-26T06:28:21;100971.72;;;9.86;100.00
49216;BME280;45943;53.148;8.204;2022-12-26T06:30:48;100970.75;;;9.87;100.00
49216;BME280;45943;53.148;8.204;2022-12-26T06:33:15;100974.72;;;9.81;100.00
49216;BME280;45943;53.148;8.204;2022-12-26T06:35:41;100973.19;;;9.90;100.00
49216;BME280;45943;53.148;8.204;2022-12-26T06:38:07;100986.09;;;9.85;100.00
49216;BME280;45943;53.148;8.204;2022-12-26T06:40:33;100989.91;;;9.93;100.00
49216;BME280;45943;53.148;8.204;2022-12-26T06:42:59;100990.50;;;9.97;100.00
49216;BME280;45943;53.148;8.204;2022-12-26T06:45:25;100981.88;;;9.93;100.00
49216;BME280;45943;53.148;8.204;2022-12-26T06:47:51;100978.59;;;10.01;100.00
49216;BME280;45943;53.148;8.204;2022-12-26T06:50:17;100975.78;;;10.02;100.00
49216;BME280;45943;53.148;8.204;2022-12-26T06:52:43;100979.69;;;9.98;100.00
49216;BME280;45943;53.148;8.204;2022-12-26T06:55:09;100973.47;;;9.98;100.00
49216;BME280;45943;53.148;8.204;2022-12-26T06:57:35;100969.19;;;9.95;100.00
49216;BME280;45943;53.148;8.204;2022-12-26T07:00:01;100971.03;;;9.95;100.00
49216;BME280;45943;53.148;8.204;2022-12-26T07:02:27;100980.28;;;10.02;100.00
49216;BME280;45943;53.148;8.204;2022-12-26T07:04:53;100971.69;;;9.74;100.00
49216;BME280;45943;53.148;8.204;2022-12-26T07:07:19;100975.31;;;9.73;100.00
49216;BME280;45943;53.148;8.204;2022-12-26T07:09:45;100966.53;;;9.95;100.00
49216;BME280;45943;53.148;8.204;2022-12-26T07:12:11;100973.88;;;9.81;100.00
49216;BME280;45943;53.148;8.204;2022-12-26T07:14:37;100968.81;;;9.89;100.00
49216;BME280;45943;53.148;8.204;2022-12-26T07:17:03;100975.00;;;9.89;100.00
49216;BME280;45943;53.148;8.204;2022-12-26T07:19:29;100964.19;;;9.91;100.00
49216;BME280;45943;53.148;8.204;2022-12-26T07:21:55;100971.34;;;9.90;100.00
49216;BME280;45943;53.148;8.204;2022-12-26T07:24:21;100960.91;;;9.98;100.00
49216;BME280;45943;53.148;8.204;2022-12-26T07:26:47;100956.78;;;9.94;100.00
49216;BME280;45943;53.148;8.204;2022-12-26T07:29:14;100962.88;;;9.96;100.00
49216;BME280;45943;53.148;8.204;2022-12-26T07:31:40;100956.94;;;10.04;100.00
49216;BME280;45943;53.148;8.204;2022-12-26T07:34:07;100951.81;;;10.12;100.00
49216;BME280;45943;53.148;8.204;2022-12-26T07:36:33;100954.84;;;10.07;100.00
49216;BME280;45943;53.148;8.204;2022-12-26T07:38:59;100957.28;;;10.11;100.00
49216;BME280;45943;53.148;8.204;2022-12-26T07:41:25;100959.59;;;10.04;100.00
49216;BME280;45943;53.148;8.204;2022-12-26T07:44:09;100953.44;;;10.15;100.00
49216;BME280;45943;53.148;8.204;2022-12-26T07:46:35;100951.81;;;10.12;100.00
49216;BME280;45943;53.148;8.204;2022-12-26T07:49:02;100966.19;;;10.11;100.00
49216;BME280;45943;53.148;8.204;2022-12-26T07:51:28;100966.03;;;10.01;100.00
49216;BME280;45943;53.148;8.204;2022-12-26T07:53:54;100966.56;;;10.06;100.00
49216;BME280;45943;53.148;8.204;2022-12-26T07:56:20;100968.88;;;10.11;100.00
49216;BME280;45943;53.148;8.204;2022-12-26T07:58:47;100962.00;;;9.96;100.00
49216;BME280;45943;53.148;8.204;2022-12-26T08:01:14;100959.38;;;10.07;100.00
49216;BME280;45943;53.148;8.204;2022-12-26T08:03:40;100966.06;;;10.13;100.00
49216;BME280;45943;53.148;8.204;2022-12-26T08:06:08;100962.78;;;10.09;100.00
49216;BME280;45943;53.148;8.204;2022-12-26T08:08:35;100960.47;;;10.04;100.00
49216;BME280;45943;53.148;8.204;2022-12-26T08:11:02;100953.34;;;9.92;100.00
49216;BME280;45943;53.148;8.204;2022-12-26T08:13:30;100955.16;;;9.92;100.00
49216;BME280;45943;53.148;8.204;2022-12-26T08:15:57;100952.00;;;9.87;100.00
49216;BME280;45943;53.148;8.204;2022-12-26T08:18:23;100951.91;;;9.99;100.00
49216;BME280;45943;53.148;8.204;2022-12-26T08:20:50;100955.94;;;9.94;100.00
49216;BME280;45943;53.148;8.204;2022-12-26T08:23:16;100949.94;;;10.01;100.00
49216;BME280;45943;53.148;8.204;2022-12-26T08:25:42;100954.78;;;9.85;100.00
49216;BME280;45943;53.148;8.204;2022-12-26T08:28:08;100950.06;;;10.00;100.00
49216;BME280;45943;53.148;8.204;2022-12-26T08:30:34;100951.41;;;9.94;100.00
49216;BME280;45943;53.148;8.204;2022-12-26T08:33:02;100953.97;;;9.96;100.00
49216;BME280;45943;53.148;8.204;2022-12-26T08:35:28;100951.06;;;9.99;100.00
49216;BME280;45943;53.148;8.204;2022-12-26T08:37:54;100942.81;;;10.13;100.00
49216;BME280;45943;53.148;8.204;2022-12-26T08:40:20;100944.13;;;10.07;100.00
49216;BME280;45943;53.148;8.204;2022-12-26T08:42:46;100949.91;;;9.90;100.00
49216;BME280;45943;53.148;8.204;2022-12-26T08:45:12;100963.28;;;9.79;100.00
49216;BME280;45943;53.148;8.204;2022-12-26T08:47:38;100957.59;;;9.84;100.00
49216;BME280;45943;53.148;8.204;2022-12-26T08:50:04;100951.09;;;9.75;100.00
49216;BME280;45943;53.148;8.204;2022-12-26T08:52:30;100952.31;;;9.82;100.00
49216;BME280;45943;53.148;8.204;2022-12-26T08:54:56;100969.63;;;9.78;100.00
49216;BME280;45943;53.148;8.204;2022-12-26T08:57:22;100963.00;;;9.71;100.00
49216;BME280;45943;53.148;8.204;2022-12-26T08:59:48;100965.19;;;9.66;100.00
49216;BME280;45943;53.148;8.204;2022-12-26T09:02:14;100977.47;;;9.68;100.00
49216;BME280;45943;53.148;8.204;2022-12-26T09:04:40;100963.00;;;9.71;100.00
49216;BME280;45943;53.148;8.204;2022-12-26T09:07:07;100969.97;;;9.73;100.00
49216;BME280;45943;53.148;8.204;2022-12-26T09:09:33;100967.34;;;9.85;100.00
49216;BME280;45943;53.148;8.204;2022-12-26T09:11:59;100971.47;;;9.89;100.00
49216;BME280;45943;53.148;8.204;2022-12-26T09:14:25;100976.44;;;9.82;100.00
49216;BME280;45943;53.148;8.204;2022-12-26T09:16:51;100968.81;;;9.89;100.00
49216;BME280;45943;53.148;8.204;2022-12-26T09:19:23;100975.13;;;9.88;100.00
49216;BME280;45943;53.148;8.204;2022-12-26T09:21:49;100968.06;;;9.87;100.00
49216;BME280;45943;53.148;8.204;2022-12-26T09:24:35;100979.63;;;9.87;100.00
49216;BME280;45943;53.148;8.204;2022-12-26T09:27:01;100975.69;;;9.80;100.00
49216;BME280;45943;53.148;8.204;2022-12-26T09:29:27;100974.53;;;9.84;100.00
49216;BME280;45943;53.148;8.204;2022-12-26T09:31:54;100977.78;;;9.76;100.00
49216;BME280;45943;53.148;8.204;2022-12-26T09:34:20;100975.47;;;9.83;100.00
49216;BME280;45943;53.148;8.204;2022-12-26T09:36:46;100982.88;;;9.80;100.00
49216;BME280;45943;53.148;8.204;2022-12-26T09:39:12;100970.00;;;9.85;100.00
49216;BME280;45943;53.148;8.204;2022-12-26T09:41:47;100975.38;;;9.85;100.00
49216;BME280;45943;53.148;8.204;2022-12-26T09:57:59;100966.44;;;10.08;100.00
49216;BME280;45943;53.148;8.204;2022-12-26T10:00:37;100956.78;;;10.41;100.00
49216;BME280;45943;53.148;8.204;2022-12-26T10:03:10;100962.50;;;10.36;100.00
49216;BME280;45943;53.148;8.204;2022-12-26T10:05:40;100949.25;;;10.46;100.00
49216;BME280;45943;53.148;8.204;2022-12-26T10:08:22;100947.41;;;10.11;100.00
49216;BME280;45943;53.148;8.204;2022-12-26T10:11:10;100951.06;;;10.10;100.00
49216;BME280;45943;53.148;8.204;2022-12-26T10:13:48;100957.25;;;9.99;100.00
49216;BME280;45943;53.148;8.204;2022-12-26T10:16:20;100942.06;;;10.11;100.00
49216;BME280;45943;53.148;8.204;2022-12-26T10:19:13;100945.13;;;10.06;100.00
49216;BME280;45943;53.148;8.204;2022-12-26T10:24:50;100932.28;;;10.23;100.00
49216;BME280;45943;53.148;8.204;2022-12-26T10:27:17;100929.09;;;10.29;100.00
49216;BME280;45943;53.148;8.204;2022-12-26T10:29:46;100933.28;;;10.33;100.00
49216;BME280;45943;53.148;8.204;2022-12-26T10:32:59;100937.88;;;10.31;100.00
49216;BME280;45943;53.148;8.204;2022-12-26T10:35:30;100935.56;;;10.26;100.00
49216;BME280;45943;53.148;8.204;2022-12-26T10:38:09;100938.50;;;10.34;100.00
49216;BME280;45943;53.148;8.204;2022-12-26T10:40:45;100938.50;;;10.34;100.00
49216;BME280;45943;53.148;8.204;2022-12-26T10:43:26;100931.53;;;10.32;100.00
49216;BME280;45943;53.148;8.204;2022-12-26T10:46:16;100936.28;;;10.28;100.00
49216;BME280;45943;53.148;8.204;2022-12-26T10:48:51;100945.69;;;10.34;100.00
49216;BME280;45943;53.148;8.204;2022-12-26T10:51:18;100945.91;;;10.31;100.00
49216;BME280;45943;53.148;8.204;2022-12-26T10:53:46;100945.44;;;10.26;100.00
49216;BME280;45943;53.148;8.204;2022-12-26T10:56:14;100943.47;;;10.28;100.00
49216;BME280;45943;53.148;8.204;2022-12-26T10:58:41;100942.75;;;10.26;100.00
49216;BME280;45943;53.148;8.204;2022-12-26T11:03:53;100948.72;;;10.29;100.00
49216;BME280;45943;53.148;8.204;2022-12-26T11:06:21;100964.31;;;10.24;100.00
49216;BME280;45943;53.148;8.204;2022-12-26T11:08:52;100950.44;;;10.30;100.00
49216;BME280;45943;53.148;8.204;2022-12-26T11:11:22;100946.03;;;10.29;100.00
49216;BME280;45943;53.148;8.204;2022-12-26T11:14:30;100975.31;;;10.32;100.00
49216;BME280;45943;53.148;8.204;2022-12-26T11:17:03;100956.63;;;10.31;100.00
49216;BME280;45943;53.148;8.204;2022-12-26T11:19:33;100959.09;;;10.23;100.00
49216;BME280;45943;53.148;8.204;2022-12-26T11:22:13;100954.09;;;10.29;100.00
49216;BME280;45943;53.148;8.204;2022-12-26T11:27:42;100966.47;;;10.19;100.00
49216;BME280;45943;53.148;8.204;2022-12-26T11:30:15;100965.38;;;10.22;100.00
49216;BME280;45943;53.148;8.204;2022-12-26T11:32:48;100956.16;;;10.26;100.00
49216;BME280;45943;53.148;8.204;2022-12-26T11:35:25;100957.34;;;10.22;100.00
49216;BME280;45943;53.148;8.204;2022-12-26T11:37:59;100970.81;;;10.33;100.00
49216;BME280;45943;53.148;8.204;2022-12-26T11:40:29;100976.53;;;10.40;100.00
49216;BME280;45943;53.148;8.204;2022-12-26T11:43:01;100971.91;;;10.42;100.00
49216;BME280;45943;53.148;8.204;2022-12-26T11:45:30;100991.53;;;10.42;100.00
49216;BME280;45943;53.148;8.204;2022-12-26T11:48:07;100985.16;;;10.32;100.00
49216;BME280;45943;53.148;8.204;2022-12-26T11:50:45;101001.00;;;10.24;100.00
49216;BME280;45943;53.148;8.204;2022-12-26T11:53:14;101004.66;;;10.23;100.00
49216;BME280;45943;53.148;8.204;2022-12-26T11:55:43;101024.59;;;10.19;100.00
49216;BME280;45943;53.148;8.204;2022-12-26T11:58:22;101022.53;;;10.22;100.00
49216;BME280;45943;53.148;8.204;2022-12-26T12:03:26;101034.75;;;10.02;100.00
49216;BME280;45943;53.148;8.204;2022-12-26T12:09:12;101054.41;;;9.90;100.00
49216;BME280;45943;53.148;8.204;2022-12-26T12:14:55;101064.59;;;9.74;100.00
49216;BME280;45943;53.148;8.204;2022-12-26T12:22:59;101062.09;;;9.71;100.00
49216;BME280;45943;53.148;8.204;2022-12-26T12:25:38;101067.25;;;9.74;100.00
49216;BME280;45943;53.148;8.204;2022-12-26T12:33:50;101061.44;;;9.80;100.00
49216;BME280;45943;53.148;8.204;2022-12-26T12:39:00;101099.97;;;9.66;100.00
49216;BME280;45943;53.148;8.204;2022-12-26T12:47:36;101120.59;;;9.28;100.00
49216;BME280;45943;53.148;8.204;2022-12-26T12:50:15;101127.88;;;9.26;100.00
49216;BME280;45943;53.148;8.204;2022-12-26T12:52:54;101124.41;;;9.24;100.00
49216;BME280;45943;53.148;8.204;2022-12-26T12:58:39;101147.66;;;9.10;100.00
49216;BME280;45943;53.148;8.204;2022-12-26T13:01:18;101158.81;;;9.17;100.00
49216;BME280;45943;53.148;8.204;2022-12-26T13:03:54;101152.72;;;9.15;100.00
49216;BME280;45943;53.148;8.204;2022-12-26T13:06:28;101155.16;;;9.18;100.00
49216;BME280;45943;53.148;8.204;2022-12-26T13:09:03;101154.31;;;9.17;100.00
49216;BME280;45943;53.148;8.204;2022-12-26T13:11:43;101154.19;;;9.19;100.00
49216;BME280;45943;53.148;8.204;2022-12-26T13:14:16;101153.56;;;9.15;100.00
49216;BME280;45943;53.148;8.204;2022-12-26T13:17:06;101169.19;;;9.22;100.00
49216;BME280;45943;53.148;8.204;2022-12-26T13:20:00;101171.09;;;9.32;100.00
49216;BME280;45943;53.148;8.204;2022-12-26T13:22:30;101172.41;;;9.39;100.00
49216;BME280;45943;53.148;8.204;2022-12-26T13:25:19;101171.09;;;9.32;100.00
49216;BME280;45943;53.148;8.204;2022-12-26T13:27:49;101169.00;;;9.25;100.00
49216;BME280;45943;53.148;8.204;2022-12-26T13:30:19;101200.13;;;9.13;100.00
49216;BME280;45943;53.148;8.204;2022-12-26T13:32:45;101189.09;;;9.05;100.00
49216;BME280;45943;53.148;8.204;2022-12-26T13:41:20;101216.19;;;8.73;100.00
49216;BME280;45943;53.148;8.204;2022-12-26T13:49:27;101232.78;;;8.66;100.00
49216;BME280;45943;53.148;8.204;2022-12-26T13:54:36;101238.13;;;9.18;100.00
49216;BME280;45943;53.148;8.204;2022-12-26T14:00:07;101262.22;;;9.05;100.00
49216;BME280;45943;53.148;8.204;2022-12-26T14:16:49;101292.28;;;8.82;100.00
49216;BME280;45943;53.148;8.204;2022-12-26T14:22:25;101285.22;;;8.81;100.00
49216;BME280;45943;53.148;8.204;2022-12-26T14:28:15;101300.81;;;8.74;100.00
49216;BME280;45943;53.148;8.204;2022-12-26T14:30:24;101308.78;;;8.76;100.00
49216;BME280;45943;53.148;8.204;2022-12-26T14:35:55;101306.41;;;8.84;100.00
49216;BME280;45943;53.148;8.204;2022-12-26T14:41:23;101320.41;;;8.75;100.00
49216;BME280;45943;53.148;8.204;2022-12-26T14:49:22;101328.50;;;8.87;100.00
49216;BME280;45943;53.148;8.204;2022-12-26T14:54:49;101345.41;;;8.88;100.00
49216;BME280;45943;53.148;8.204;2022-12-26T14:57:34;101340.16;;;8.86;100.00
49216;BME280;45943;53.148;8.204;2022-12-26T15:00:24;101341.78;;;8.89;100.00
49216;BME280;45943;53.148;8.204;2022-12-26T15:05:25;101337.66;;;8.83;100.00
49216;BME280;45943;53.148;8.204;2022-12-26T15:08:14;101345.09;;;8.93;100.00
49216;BME280;45943;53.148;8.204;2022-12-26T15:14:02;101357.84;;;8.75;100.00
49216;BME280;45943;53.148;8.204;2022-12-26T15:19:34;101366.56;;;8.64;100.00
49216;BME280;45943;53.148;8.204;2022-12-26T15:22:26;101370.19;;;8.63;100.00
49216;BME280;45943;53.148;8.204;2022-12-26T15:30:54;101384.06;;;8.55;100.00
49216;BME280;45943;53.148;8.204;2022-12-26T15:33:49;101386.66;;;8.57;100.00
49216;BME280;45943;53.148;8.204;2022-12-26T15:36:34;101402.28;;;8.63;100.00
49216;BME280;45943;53.148;8.204;2022-12-26T15:39:24;101398.75;;;8.62;100.00
49216;BME280;45943;53.148;8.204;2022-12-26T15:42:13;101398.75;;;8.62;100.00
49216;BME280;45943;53.148;8.204;2022-12-26T15:45:07;101400.69;;;8.60;100.00
49216;BME280;45943;53.148;8.204;2022-12-26T15:47:54;101407.63;;;8.63;100.00
49216;BME280;45943;53.148;8.204;2022-12-26T15:50:48;101413.38;;;8.57;100.00
49216;BME280;45943;53.148;8.204;2022-12-26T15:53:25;101411.19;;;8.49;100.00
49216;BME280;45943;53.148;8.204;2022-12-26T16:01:41;101418.34;;;8.49;100.00
49216;BME280;45943;53.148;8.204;2022-12-26T16:04:23;101427.78;;;8.54;100.00
49216;BME280;45943;53.148;8.204;2022-12-26T16:07:08;101425.91;;;8.56;100.00
49216;BME280;45943;53.148;8.204;2022-12-26T16:09:49;101425.91;;;8.56;100.00
49216;BME280;45943;53.148;8.204;2022-12-26T16:12:27;101430.09;;;8.46;100.00